EGCN

Robin Hood Doncaster Sheffield Airport

Doncaster, United Kingdom
METAR EGCN 222120Z 23008KT 9999 FEW042 11/08 Q1010
Observed Flight Rules
Apr-22 @ 21:20 UTC (24 minutes ago) Visual Flight Rules
Wind Visibility Clouds
230° at 8 knots 10,000+ meters
  • Few at 4,200' AGL
Temperatures Readings
Current 11°C / 52°F
Dewpoint 8°C / 46°F
Humidity 82%
Altimeter 29.82" Hg
Pressure 1010 hPa
Elevation 17
METAR EGCN 222120Z 23008KT 9999 FEW042 11/08 Q1010
Observed Flight Rules
Apr-22 @ 21:20 UTC
(24 minutes ago)
VFR
Wind Visibility
230° at 8 knots 10,000+ meters
Clouds
  • Few at 4,200' AGL
Temperature Dewpoint
11°C / 52°F 8°C / 46°F
Humidity Altimeter Pressure
82% 29.82" Hg 1010 hPa